createdAt,value
2018-12-19T00:03:41.672Z,21.63
2018-12-19T00:08:25.453Z,28.10
2018-12-19T00:13:18.515Z,25.90
2018-12-19T00:18:02.253Z,25.40
2018-12-19T00:22:45.972Z,25.70
2018-12-19T00:27:29.656Z,25.30
2018-12-19T00:32:13.414Z,25.87
2018-12-19T00:36:57.242Z,25.87
2018-12-19T00:41:41.007Z,25.23
2018-12-19T00:46:37.050Z,25.33
2018-12-19T00:51:20.691Z,25.93
2018-12-19T00:56:04.341Z,29.00
2018-12-19T01:05:58.943Z,30.07
2018-12-19T01:10:42.853Z,25.33
2018-12-19T01:15:26.501Z,25.73
2018-12-19T01:20:10.246Z,27.23
2018-12-19T01:24:53.981Z,29.70
2018-12-19T01:29:37.792Z,30.20
2018-12-19T01:34:21.455Z,25.17
2018-12-19T01:39:07.564Z,25.37
2018-12-19T01:43:51.469Z,22.33
2018-12-19T01:48:35.462Z,20.33
2018-12-19T01:53:19.222Z,21.30
2018-12-19T01:58:02.982Z,18.87
2018-12-19T02:02:46.739Z,18.20
2018-12-19T02:07:30.431Z,15.53
2018-12-19T02:12:15.932Z,18.07
2018-12-19T02:16:59.829Z,17.90
2018-12-19T02:21:43.639Z,16.30
2018-12-19T02:26:27.377Z,17.43
2018-12-19T02:31:11.053Z,16.27
2018-12-19T02:35:54.792Z,18.13
2018-12-19T02:40:38.565Z,19.23
2018-12-19T02:45:22.178Z,18.93
2018-12-19T02:50:06.562Z,15.27
2018-12-19T02:54:50.219Z,16.70
2018-12-19T02:59:33.980Z,16.97
2018-12-19T03:04:17.753Z,17.47
2018-12-19T03:09:01.576Z,18.20
2018-12-19T03:13:48.722Z,18.50
2018-12-19T03:18:32.542Z,16.67
2018-12-19T03:23:16.191Z,15.13
2018-12-19T03:28:00.081Z,14.87
2018-12-19T03:32:43.821Z,14.73
2018-12-19T03:37:27.707Z,11.87
2018-12-19T03:42:11.476Z,16.77
2018-12-19T03:46:55.326Z,12.60
2018-12-19T03:51:39.108Z,13.40
2018-12-19T03:56:23.046Z,14.30
2018-12-19T04:01:06.804Z,14.53
2018-12-19T04:05:50.623Z,13.43
2018-12-19T04:10:34.437Z,15.43
2018-12-19T04:15:18.132Z,14.00
2018-12-19T04:20:01.769Z,14.57
2018-12-19T04:24:45.611Z,13.17
2018-12-19T04:29:29.451Z,14.07
2018-12-19T04:34:13.304Z,13.17
2018-12-19T04:38:57.092Z,14.27
2018-12-19T04:43:40.883Z,14.83
2018-12-19T04:48:24.629Z,13.43
2018-12-19T04:53:08.487Z,13.77
2018-12-19T04:57:52.280Z,13.97
2018-12-19T05:02:35.971Z,13.97
2018-12-19T05:07:21.131Z,13.83
2018-12-19T05:12:04.890Z,14.70
2018-12-19T05:16:48.597Z,13.03
2018-12-19T05:21:32.515Z,13.57
2018-12-19T05:26:16.277Z,13.53
2018-12-19T05:30:59.987Z,13.00
2018-12-19T05:35:43.683Z,13.73
2018-12-19T05:40:27.594Z,17.93
2018-12-19T05:45:11.361Z,16.07
2018-12-19T05:49:55.623Z,17.47
2018-12-19T05:54:39.483Z,18.80
2018-12-19T05:59:23.209Z,18.17
2018-12-19T06:04:07.079Z,19.37
2018-12-19T06:08:50.849Z,17.37
2018-12-19T06:13:34.492Z,21.73
2018-12-19T06:18:18.241Z,35.23
2018-12-19T06:23:01.938Z,22.40
2018-12-19T06:27:45.671Z,19.20
2018-12-19T06:32:29.409Z,19.67
2018-12-19T06:37:13.135Z,17.93
2018-12-19T06:42:00.670Z,21.13
2018-12-19T06:46:44.390Z,29.87
2018-12-19T06:51:28.084Z,21.90
2018-12-19T06:56:11.775Z,26.27
2018-12-19T07:00:56.692Z,26.07
2018-12-19T07:05:40.373Z,19.10
2018-12-19T07:10:24.205Z,20.17
2018-12-19T07:15:08.306Z,17.87
2018-12-19T07:19:52.020Z,17.33
2018-12-19T07:24:35.848Z,17.43
2018-12-19T07:29:19.800Z,19.10
2018-12-19T07:34:03.493Z,18.67
2018-12-19T07:38:47.185Z,18.07
2018-12-19T07:43:31.067Z,19.23
2018-12-19T07:48:14.809Z,16.57
2018-12-19T07:52:59.091Z,17.43
2018-12-19T07:57:42.918Z,17.00
2018-12-19T08:02:26.866Z,19.73
2018-12-19T08:07:10.748Z,18.90
2018-12-19T08:11:56.222Z,20.27
2018-12-19T08:16:39.906Z,18.40
2018-12-19T08:21:23.633Z,19.60
2018-12-19T08:26:07.447Z,17.33
2018-12-19T08:30:51.195Z,16.70
2018-12-19T08:35:34.916Z,16.07
2018-12-19T08:40:18.609Z,19.57
2018-12-19T08:45:02.410Z,18.03
2018-12-19T08:49:46.144Z,14.23
2018-12-19T08:54:29.870Z,18.87
2018-12-19T08:59:13.569Z,17.83
2018-12-19T09:03:57.306Z,15.20
2018-12-19T09:08:41.220Z,18.00
2018-12-19T09:13:24.992Z,16.87
2018-12-19T09:18:08.692Z,17.33
2018-12-19T09:22:52.341Z,16.63
2018-12-19T09:27:36.135Z,16.13
2018-12-19T09:32:19.841Z,21.13
2018-12-19T09:41:47.593Z,17.87
2018-12-19T09:46:39.375Z,17.23
2018-12-19T09:51:24.921Z,18.73
2018-12-19T09:56:10.247Z,18.33
2018-12-19T10:06:05.430Z,16.87
2018-12-19T10:10:49.210Z,18.43
2018-12-19T10:15:32.965Z,16.60
2018-12-19T10:20:16.673Z,20.93
2018-12-19T10:25:06.190Z,20.90
2018-12-19T10:29:49.986Z,20.57
2018-12-19T10:34:33.669Z,17.70
2018-12-19T10:39:17.716Z,18.83
2018-12-19T10:44:05.038Z,20.23
2018-12-19T10:48:49.058Z,20.10
2018-12-19T10:53:37.030Z,25.03
2018-12-19T10:58:21.095Z,20.60
2018-12-19T11:03:04.770Z,17.37
2018-12-19T11:07:49.814Z,16.73
2018-12-19T11:12:33.546Z,20.97
2018-12-19T11:17:17.488Z,24.67
2018-12-19T11:22:04.880Z,22.53
2018-12-19T11:26:49.496Z,25.27
2018-12-19T11:31:33.524Z,17.37
2018-12-19T11:36:17.430Z,17.93
2018-12-19T11:41:01.208Z,16.83
2018-12-19T11:45:45.198Z,19.20
2018-12-19T11:50:28.990Z,24.07
2018-12-19T11:55:12.951Z,18.77
2018-12-19T11:59:56.854Z,15.47
2018-12-19T12:04:40.814Z,17.33
2018-12-19T12:09:24.562Z,18.17
2018-12-19T12:14:08.428Z,18.70
2018-12-19T12:18:52.204Z,16.07
2018-12-19T12:23:35.892Z,18.27
2018-12-19T12:28:19.538Z,16.77
2018-12-19T12:33:03.374Z,16.13
2018-12-19T12:37:47.245Z,16.13
2018-12-19T12:42:31.069Z,20.73
2018-12-19T12:47:15.054Z,17.60
2018-12-19T12:51:58.898Z,21.43
2018-12-19T12:56:42.697Z,16.07
2018-12-19T13:01:26.572Z,15.20
2018-12-19T13:06:10.314Z,16.37
2018-12-19T13:10:54.131Z,17.53
2018-12-19T13:15:41.024Z,16.90
2018-12-19T13:20:24.977Z,18.47
2018-12-19T13:25:08.948Z,18.60
2018-12-19T13:29:52.996Z,18.20
2018-12-19T13:34:36.795Z,17.80
2018-12-19T13:39:20.526Z,18.93
2018-12-19T13:44:04.425Z,16.50
2018-12-19T13:48:48.348Z,16.80
2018-12-19T13:53:32.068Z,15.90
2018-12-19T13:58:15.840Z,18.23
2018-12-19T14:02:59.507Z,17.77
2018-12-19T14:07:43.418Z,14.90
2018-12-19T14:12:27.172Z,19.10
2018-12-19T14:17:10.889Z,19.30
2018-12-19T14:21:54.651Z,23.77
2018-12-19T14:26:38.750Z,34.10
2018-12-19T14:31:22.683Z,21.53
2018-12-19T14:36:06.557Z,19.67
2018-12-19T14:40:50.283Z,18.80
2018-12-19T14:45:34.265Z,19.90
2018-12-19T14:50:18.021Z,22.20
2018-12-19T14:55:01.839Z,40.67
2018-12-19T14:59:45.614Z,120.37
2018-12-19T15:04:29.305Z,32.90
2018-12-19T15:09:13.004Z,20.70
2018-12-19T15:13:57.011Z,21.93
2018-12-19T15:18:40.706Z,19.40
2018-12-19T15:23:24.593Z,22.10
2018-12-19T15:28:08.694Z,19.93
2018-12-19T15:32:57.251Z,19.37
2018-12-19T15:37:42.761Z,21.67
2018-12-19T15:42:32.458Z,20.63
2018-12-19T15:47:26.771Z,20.30
2018-12-19T15:52:27.156Z,22.30
2018-12-19T15:57:11.058Z,23.13
2018-12-19T16:01:55.760Z,26.40
2018-12-19T16:06:39.520Z,24.23
2018-12-19T16:11:23.344Z,24.23
2018-12-19T16:16:16.722Z,26.12
2018-12-19T16:21:05.995Z,28.32
2018-12-19T16:25:55.817Z,25.73
2018-12-19T16:30:39.840Z,24.63
2018-12-19T16:35:23.815Z,24.37
2018-12-19T16:40:08.903Z,28.30
2018-12-19T16:44:52.942Z,23.17
2018-12-19T16:49:54.986Z,26.10
2018-12-19T16:55:03.856Z,28.63
2018-12-19T16:59:56.092Z,30.07
2018-12-19T17:10:18.275Z,22.57
2018-12-19T17:15:20.260Z,24.23
2018-12-19T17:25:39.567Z,29.07
2018-12-19T17:30:26.864Z,26.20
2018-12-19T17:35:23.198Z,25.57
2018-12-19T17:40:08.745Z,28.10
2018-12-19T17:44:53.216Z,25.70
2018-12-19T17:49:44.006Z,27.03
2018-12-19T17:54:41.515Z,28.07
2018-12-19T18:10:12.431Z,26.40
2018-12-19T18:15:10.844Z,30.13
2018-12-19T18:20:15.418Z,26.03
2018-12-19T18:30:29.677Z,26.73
2018-12-19T18:35:17.592Z,28.13
2018-12-19T18:40:02.096Z,28.33
2018-12-19T18:45:04.358Z,26.27
2018-12-19T18:49:48.766Z,26.03
2018-12-19T19:10:19.700Z,29.63
2018-12-19T19:15:08.139Z,27.43
2018-12-19T19:25:25.124Z,26.97
2018-12-19T19:30:10.770Z,29.00
2018-12-19T19:35:01.287Z,28.17
2018-12-19T19:39:59.922Z,26.77
2018-12-19T20:11:19.149Z,31.77
2018-12-19T20:26:47.111Z,29.17
2018-12-19T20:36:55.090Z,32.07
2018-12-19T20:47:05.570Z,34.27
2018-12-19T21:02:18.861Z,37.73
2018-12-19T21:07:02.863Z,39.27
2018-12-19T21:11:46.847Z,33.70
2018-12-19T21:16:36.135Z,37.07
2018-12-19T21:21:19.971Z,39.27
2018-12-19T21:26:04.180Z,39.20
2018-12-19T21:30:48.322Z,39.47
2018-12-19T21:35:36.176Z,37.27
2018-12-19T22:07:03.974Z,44.00
2018-12-19T22:11:47.912Z,42.57
2018-12-19T22:16:37.039Z,42.63
2018-12-19T22:21:21.096Z,38.73
2018-12-19T22:26:04.979Z,40.27
2018-12-19T22:30:50.450Z,39.17
2018-12-19T22:35:34.258Z,36.90
2018-12-19T22:40:19.434Z,40.03
2018-12-19T22:45:03.487Z,40.07
2018-12-19T22:49:47.371Z,34.90
2018-12-19T22:54:31.829Z,33.57
2018-12-19T23:09:46.422Z,31.83
2018-12-19T23:14:31.148Z,34.20
2018-12-19T23:19:15.162Z,36.20
2018-12-19T23:23:59.672Z,38.43
2018-12-19T23:28:43.705Z,34.20
2018-12-19T23:33:28.612Z,32.60
2018-12-19T23:38:13.166Z,39.53
2018-12-19T23:42:58.257Z,41.47
2018-12-19T23:47:42.270Z,42.87
2018-12-19T23:52:31.925Z,39.67
